createdAt,value
2023-02-06T00:01:43.402Z,11.52
2023-02-06T00:04:12.623Z,11.41
2023-02-06T00:06:41.152Z,11.29
2023-02-06T00:09:10.372Z,11.22
2023-02-06T00:11:39.226Z,11.20
2023-02-06T00:14:07.958Z,11.15
2023-02-06T00:16:36.701Z,11.12
2023-02-06T00:19:05.434Z,11.14
2023-02-06T00:21:35.034Z,11.18
2023-02-06T00:24:04.396Z,11.25
2023-02-06T00:26:33.869Z,11.29
2023-02-06T00:29:02.235Z,11.34
2023-02-06T00:31:30.850Z,11.36
2023-02-06T00:33:59.144Z,11.33
2023-02-06T00:36:27.580Z,11.33
2023-02-06T00:38:55.975Z,11.28
2023-02-06T00:41:24.226Z,11.28
2023-02-06T00:43:52.479Z,11.27
2023-02-06T00:46:20.798Z,11.27
2023-02-06T00:48:49.127Z,11.30
2023-02-06T00:51:17.471Z,11.33
2023-02-06T00:53:45.921Z,11.32
2023-02-06T00:56:14.200Z,11.30
2023-02-06T00:58:42.533Z,11.27
2023-02-06T01:01:10.849Z,11.23
2023-02-06T01:03:39.173Z,11.17
2023-02-06T01:06:07.590Z,11.10
2023-02-06T01:08:35.883Z,11.07
2023-02-06T01:11:13.842Z,11.02
2023-02-06T01:13:42.557Z,10.96
2023-02-06T01:16:13.316Z,10.93
2023-02-06T01:18:42.140Z,10.88
2023-02-06T01:21:16.644Z,10.82
2023-02-06T01:23:45.884Z,10.77
2023-02-06T01:26:16.724Z,10.73
2023-02-06T01:28:47.648Z,10.73
2023-02-06T01:31:22.863Z,10.71
2023-02-06T01:33:52.152Z,10.69
2023-02-06T01:36:21.799Z,10.69
2023-02-06T01:38:51.065Z,10.65
2023-02-06T01:41:21.540Z,10.61
2023-02-06T01:44:08.844Z,10.56
2023-02-06T01:46:37.678Z,10.55
2023-02-06T01:49:07.587Z,10.52
2023-02-06T01:51:36.139Z,10.47
2023-02-06T01:54:07.608Z,10.41
2023-02-06T01:56:42.929Z,10.35
2023-02-06T01:59:11.470Z,10.29
2023-02-06T02:01:40.049Z,10.25
2023-02-06T02:04:12.183Z,10.23
2023-02-06T02:06:42.184Z,10.23
2023-02-06T02:09:10.577Z,10.18
2023-02-06T02:11:42.796Z,10.16
2023-02-06T02:14:16.974Z,10.14
2023-02-06T02:17:34.293Z,10.07
2023-02-06T02:20:17.442Z,9.99
2023-02-06T02:23:09.531Z,9.93
2023-02-06T02:26:06.821Z,9.89
2023-02-06T02:28:35.106Z,9.89
2023-02-06T02:31:36.644Z,9.87
2023-02-06T02:34:31.658Z,9.90
2023-02-06T02:37:20.955Z,9.92
2023-02-06T02:40:09.306Z,9.94
2023-02-06T02:42:54.120Z,9.94
2023-02-06T02:45:25.013Z,9.96
2023-02-06T02:48:19.223Z,9.96
2023-02-06T02:50:47.716Z,9.96
2023-02-06T02:53:16.205Z,9.97
2023-02-06T02:55:44.460Z,9.99
2023-02-06T02:58:17.676Z,9.98
2023-02-06T03:00:56.668Z,9.96
2023-02-06T03:03:29.736Z,9.96
2023-02-06T03:06:12.734Z,9.94
2023-02-06T03:08:53.120Z,9.89
2023-02-06T03:11:22.362Z,9.89
2023-02-06T03:14:17.199Z,9.91
2023-02-06T03:16:55.808Z,9.93
2023-02-06T03:19:35.629Z,9.97
2023-02-06T03:22:06.237Z,10.03
2023-02-06T03:24:39.856Z,10.08
2023-02-06T03:27:17.956Z,10.05
2023-02-06T03:29:49.491Z,10.04
2023-02-06T03:32:27.942Z,10.04
2023-02-06T03:35:29.924Z,10.04
2023-02-06T03:37:58.749Z,10.09
2023-02-06T03:40:30.041Z,10.07
2023-02-06T03:43:02.806Z,10.10
2023-02-06T03:45:44.148Z,10.07
2023-02-06T03:48:22.765Z,10.03
2023-02-06T03:50:55.263Z,10.03
2023-02-06T03:53:25.864Z,9.99
2023-02-06T03:56:00.425Z,9.99
2023-02-06T03:58:28.840Z,9.99
2023-02-06T04:00:57.169Z,9.97
2023-02-06T04:03:27.489Z,9.98
2023-02-06T04:05:55.805Z,9.98
2023-02-06T04:08:24.107Z,10.03
2023-02-06T04:10:52.661Z,10.03
2023-02-06T04:13:20.983Z,10.06
2023-02-06T04:15:49.278Z,10.10
2023-02-06T04:18:17.577Z,10.06
2023-02-06T04:20:46.121Z,9.98
2023-02-06T04:23:14.418Z,9.94
2023-02-06T04:25:42.689Z,9.90
2023-02-06T04:28:10.989Z,9.88
2023-02-06T04:30:39.344Z,9.87
2023-02-06T04:33:07.621Z,9.84
2023-02-06T04:35:36.177Z,9.82
2023-02-06T04:38:04.642Z,9.80
2023-02-06T04:40:32.913Z,9.77
2023-02-06T04:43:01.386Z,9.79
2023-02-06T04:45:29.641Z,9.84
2023-02-06T04:47:59.456Z,9.81
2023-02-06T04:50:32.140Z,9.81
2023-02-06T04:53:00.444Z,9.79
2023-02-06T04:55:29.082Z,9.79
2023-02-06T04:57:57.333Z,9.80
2023-02-06T05:00:25.665Z,9.83
2023-02-06T05:02:54.031Z,9.83
2023-02-06T05:05:22.358Z,9.86
2023-02-06T05:07:50.665Z,9.88
2023-02-06T05:10:19.092Z,9.88
2023-02-06T05:12:48.286Z,9.88
2023-02-06T05:15:16.522Z,9.88
2023-02-06T05:17:45.385Z,9.83
2023-02-06T05:20:13.641Z,9.80
2023-02-06T05:22:41.904Z,9.83
2023-02-06T05:25:10.199Z,9.82
2023-02-06T05:27:38.464Z,9.82
2023-02-06T05:30:07.077Z,9.81
2023-02-06T05:32:35.413Z,9.80
2023-02-06T05:35:03.719Z,9.77
2023-02-06T05:37:31.997Z,9.72
2023-02-06T05:40:00.461Z,9.71
2023-02-06T05:42:28.735Z,9.71
2023-02-06T05:44:57.091Z,9.72
2023-02-06T05:47:26.824Z,9.74
2023-02-06T05:49:55.524Z,9.79
2023-02-06T05:52:23.806Z,9.81
2023-02-06T05:54:52.109Z,9.84
2023-02-06T05:57:20.515Z,9.84
2023-02-06T05:59:48.878Z,9.87
2023-02-06T06:02:17.217Z,9.91
2023-02-06T06:04:45.808Z,9.94
2023-02-06T06:07:14.601Z,9.94
2023-02-06T06:09:43.226Z,9.96
2023-02-06T06:12:11.581Z,9.98
2023-02-06T06:14:39.861Z,10.01
2023-02-06T06:17:08.631Z,10.00
2023-02-06T06:19:37.162Z,9.98
2023-02-06T06:22:05.693Z,10.01
2023-02-06T06:24:33.945Z,10.06
2023-02-06T06:27:02.348Z,10.08
2023-02-06T06:29:31.181Z,10.08
2023-02-06T06:31:59.544Z,10.09
2023-02-06T06:34:28.375Z,10.15
2023-02-06T06:36:56.726Z,10.16
2023-02-06T06:39:25.192Z,10.14
2023-02-06T06:41:53.458Z,10.13
2023-02-06T06:44:21.940Z,10.12
2023-02-06T06:46:50.215Z,10.16
2023-02-06T06:49:18.580Z,10.19
2023-02-06T06:51:46.863Z,10.18
2023-02-06T06:54:16.306Z,10.18
2023-02-06T06:56:44.546Z,10.20
2023-02-06T06:59:13.026Z,10.20
2023-02-06T07:01:41.495Z,10.21
2023-02-06T07:04:09.832Z,10.22
2023-02-06T07:06:38.166Z,10.24
2023-02-06T07:09:06.492Z,10.21
2023-02-06T07:11:34.806Z,10.19
2023-02-06T07:14:03.588Z,10.17
2023-02-06T07:16:31.982Z,10.14
2023-02-06T07:19:00.306Z,10.12
2023-02-06T07:21:28.566Z,10.12
2023-02-06T07:23:56.889Z,10.10
2023-02-06T07:26:25.171Z,10.04
2023-02-06T07:28:53.586Z,10.01
2023-02-06T07:31:22.710Z,9.98
2023-02-06T07:33:51.047Z,9.95
2023-02-06T07:36:19.413Z,9.98
2023-02-06T07:38:47.723Z,10.01
2023-02-06T07:41:16.912Z,9.97
2023-02-06T07:43:45.871Z,9.95
2023-02-06T07:46:14.164Z,9.93
2023-02-06T07:48:43.528Z,9.91
2023-02-06T07:51:11.925Z,9.85
2023-02-06T07:53:40.203Z,9.81
2023-02-06T07:56:13.501Z,9.78
2023-02-06T07:58:42.362Z,9.73
2023-02-06T08:01:10.840Z,9.70
2023-02-06T08:03:39.233Z,9.63
2023-02-06T08:06:15.748Z,9.53
2023-02-06T08:08:45.060Z,9.44
2023-02-06T08:11:16.552Z,9.37
2023-02-06T08:13:46.162Z,9.35
2023-02-06T08:16:17.909Z,9.29
2023-02-06T08:18:47.283Z,9.23
2023-02-06T08:21:23.666Z,9.18
2023-02-06T08:23:59.730Z,9.15
2023-02-06T08:26:29.974Z,9.13
2023-02-06T08:28:59.903Z,9.10
2023-02-06T08:31:31.081Z,9.08
2023-02-06T08:33:59.532Z,9.05
2023-02-06T08:36:33.733Z,9.03
2023-02-06T08:39:02.911Z,9.00
2023-02-06T08:41:40.008Z,8.95
2023-02-06T08:44:12.707Z,8.90
2023-02-06T08:46:41.206Z,8.83
2023-02-06T08:49:14.457Z,8.76
2023-02-06T08:51:43.006Z,8.72
2023-02-06T08:54:16.609Z,8.68
2023-02-06T08:56:45.788Z,8.66
2023-02-06T08:59:16.001Z,8.61
2023-02-06T09:01:46.391Z,8.58
2023-02-06T09:04:15.369Z,8.53
2023-02-06T09:06:45.873Z,8.50
2023-02-06T09:09:14.721Z,8.44
2023-02-06T09:11:43.492Z,8.39
2023-02-06T09:14:16.497Z,8.37
2023-02-06T09:16:45.169Z,8.34
2023-02-06T09:19:13.638Z,8.34
2023-02-06T09:21:42.188Z,8.35
2023-02-06T09:24:12.402Z,8.34
2023-02-06T09:26:58.451Z,8.32
2023-02-06T09:29:34.977Z,8.26
2023-02-06T09:32:03.339Z,8.18
2023-02-06T09:34:31.803Z,8.12
2023-02-06T09:37:03.048Z,8.04
2023-02-06T09:39:32.473Z,8.00
2023-02-06T09:42:13.400Z,7.98
2023-02-06T09:44:54.951Z,7.93
2023-02-06T09:47:40.929Z,7.88
2023-02-06T09:50:23.095Z,7.91
2023-02-06T09:53:09.020Z,7.94
2023-02-06T09:55:59.301Z,7.91
2023-02-06T09:58:30.387Z,7.85
2023-02-06T10:01:35.877Z,7.81
2023-02-06T10:04:35.932Z,7.78
2023-02-06T10:07:48.584Z,7.76
2023-02-06T10:10:38.481Z,7.77
2023-02-06T10:13:29.241Z,7.82
2023-02-06T10:16:04.584Z,7.80
2023-02-06T10:18:47.529Z,7.76
2023-02-06T10:21:38.054Z,7.73
2023-02-06T10:24:10.234Z,7.76
2023-02-06T10:26:40.764Z,7.78
2023-02-06T10:29:16.910Z,7.76
2023-02-06T10:32:04.812Z,7.75
2023-02-06T10:34:46.297Z,7.72
2023-02-06T10:37:29.552Z,7.69
2023-02-06T10:40:16.906Z,7.66
2023-02-06T10:42:50.346Z,7.62
2023-02-06T10:45:39.437Z,7.56
2023-02-06T10:48:33.768Z,7.50
2023-02-06T10:51:25.926Z,7.43
2023-02-06T10:53:59.787Z,7.39
2023-02-06T10:56:36.927Z,7.37
2023-02-06T10:59:19.030Z,7.34
2023-02-06T11:01:50.294Z,7.32
2023-02-06T11:04:28.242Z,7.28
2023-02-06T11:07:05.544Z,7.23
2023-02-06T11:09:34.639Z,7.22
2023-02-06T11:12:04.097Z,7.21
2023-02-06T11:14:38.353Z,7.17
2023-02-06T11:17:06.694Z,7.14
2023-02-06T11:19:47.443Z,7.13
2023-02-06T11:22:27.091Z,7.08
2023-02-06T11:25:08.730Z,7.06
2023-02-06T11:27:37.740Z,6.99
2023-02-06T11:30:22.184Z,6.95
2023-02-06T11:33:03.628Z,6.91
2023-02-06T11:35:47.347Z,6.87
2023-02-06T11:38:25.198Z,6.82
2023-02-06T11:41:17.624Z,6.78
2023-02-06T11:43:48.437Z,6.75
2023-02-06T11:46:27.001Z,6.76
2023-02-06T11:48:59.432Z,6.77
2023-02-06T11:51:46.339Z,6.78
2023-02-06T11:54:29.087Z,6.74
2023-02-06T11:57:28.905Z,6.70
2023-02-06T12:00:00.452Z,6.68
2023-02-06T12:02:30.978Z,6.67
2023-02-06T12:05:19.364Z,6.66
2023-02-06T12:07:56.113Z,6.65
2023-02-06T12:10:27.086Z,6.66
2023-02-06T12:13:01.896Z,6.62
2023-02-06T12:15:46.551Z,6.56
2023-02-06T12:18:40.348Z,6.49
2023-02-06T12:21:28.745Z,6.48
2023-02-06T12:24:03.220Z,6.48
2023-02-06T12:26:35.241Z,6.46
2023-02-06T12:29:21.448Z,6.43
2023-02-06T12:32:05.908Z,6.43
2023-02-06T12:34:45.464Z,6.39
2023-02-06T12:37:56.532Z,6.32
2023-02-06T12:40:49.727Z,6.29
2023-02-06T12:43:20.224Z,6.31
2023-02-06T12:45:58.901Z,6.31
2023-02-06T12:48:30.373Z,6.30
2023-02-06T12:51:07.409Z,6.27
2023-02-06T12:53:44.278Z,6.26
2023-02-06T12:56:22.392Z,6.25
2023-02-06T12:59:06.500Z,6.19
2023-02-06T13:01:52.936Z,6.12
2023-02-06T13:04:31.316Z,6.09
2023-02-06T13:07:09.184Z,6.06
2023-02-06T13:09:48.616Z,6.05
2023-02-06T13:12:20.751Z,6.01
2023-02-06T13:14:55.385Z,5.99
2023-02-06T13:17:28.035Z,5.97
2023-02-06T13:20:12.817Z,5.95
2023-02-06T13:22:45.727Z,5.92
2023-02-06T13:25:32.070Z,5.90
2023-02-06T13:28:23.793Z,5.85
2023-02-06T13:31:02.742Z,5.78
2023-02-06T13:33:53.608Z,5.77
2023-02-06T13:36:48.492Z,5.75
2023-02-06T13:39:32.022Z,5.74
2023-02-06T13:42:23.222Z,5.73
2023-02-06T13:44:53.031Z,5.71
2023-02-06T13:47:54.053Z,5.71
2023-02-06T13:50:30.256Z,5.72
2023-02-06T13:53:01.341Z,5.73
2023-02-06T13:55:53.711Z,5.73
2023-02-06T13:58:46.579Z,5.71
2023-02-06T14:01:27.190Z,5.67
2023-02-06T14:03:56.866Z,5.61
2023-02-06T14:06:39.803Z,5.62
2023-02-06T14:09:43.831Z,5.62
2023-02-06T14:12:45.524Z,5.59
2023-02-06T14:15:37.222Z,5.57
2023-02-06T14:18:33.645Z,5.59
2023-02-06T14:21:36.214Z,5.56
2023-02-06T14:24:26.934Z,5.55
2023-02-06T14:27:26.290Z,5.56
2023-02-06T14:30:31.381Z,5.56
2023-02-06T14:33:09.085Z,5.54
2023-02-06T14:36:04.205Z,5.55
2023-02-06T14:38:52.297Z,5.53
2023-02-06T14:41:21.016Z,5.50
2023-02-06T14:43:52.128Z,5.48
2023-02-06T14:46:21.383Z,5.45
2023-02-06T14:48:57.379Z,5.45
2023-02-06T14:51:40.205Z,5.43
2023-02-06T14:54:28.587Z,5.45
2023-02-06T14:56:58.741Z,5.47
2023-02-06T14:59:27.277Z,5.45
2023-02-06T15:01:57.837Z,5.44
2023-02-06T15:04:29.433Z,5.44
2023-02-06T15:07:05.616Z,5.40
2023-02-06T15:09:36.898Z,5.39
2023-02-06T15:12:19.686Z,5.38
2023-02-06T15:14:59.455Z,5.35
2023-02-06T15:17:28.062Z,5.32
2023-02-06T15:19:56.563Z,5.36
2023-02-06T15:22:31.229Z,5.38
2023-02-06T15:25:18.089Z,5.39
2023-02-06T15:27:47.036Z,5.41
2023-02-06T15:30:24.859Z,5.39
2023-02-06T15:32:55.495Z,5.41
2023-02-06T15:35:27.900Z,5.43
2023-02-06T15:37:57.704Z,5.43
2023-02-06T15:40:39.804Z,5.42
2023-02-06T15:43:08.191Z,5.45
2023-02-06T15:45:40.454Z,5.52
2023-02-06T15:48:36.373Z,5.59
2023-02-06T15:51:24.818Z,5.70
2023-02-06T15:54:17.598Z,5.77
2023-02-06T15:56:55.610Z,5.82
2023-02-06T15:59:26.497Z,5.92
2023-02-06T16:01:58.098Z,6.01
2023-02-06T16:04:36.269Z,6.07
2023-02-06T16:07:20.193Z,6.11
2023-02-06T16:10:26.112Z,6.21
2023-02-06T16:12:55.970Z,6.27
2023-02-06T16:15:36.733Z,6.35
2023-02-06T16:18:28.272Z,6.45
2023-02-06T16:21:24.167Z,6.54
2023-02-06T16:24:07.128Z,6.68
2023-02-06T16:26:47.961Z,6.85
2023-02-06T16:29:31.040Z,7.00
2023-02-06T16:32:15.168Z,7.14
2023-02-06T16:34:46.306Z,7.23
2023-02-06T16:37:23.088Z,7.33
2023-02-06T16:39:51.585Z,7.41
2023-02-06T16:42:33.705Z,7.50
2023-02-06T16:45:07.318Z,7.61
2023-02-06T16:47:35.689Z,7.71
2023-02-06T16:50:04.096Z,7.82
2023-02-06T16:52:34.497Z,7.92
2023-02-06T16:55:03.502Z,8.02
2023-02-06T16:57:35.903Z,8.13
2023-02-06T17:00:10.351Z,8.21
2023-02-06T17:02:39.189Z,8.30
2023-02-06T17:05:07.782Z,8.41
2023-02-06T17:07:36.172Z,8.48
2023-02-06T17:10:05.347Z,8.57
2023-02-06T17:12:34.056Z,8.63
2023-02-06T17:15:02.815Z,8.71
2023-02-06T17:17:31.391Z,8.81
2023-02-06T17:19:59.921Z,8.91
2023-02-06T17:22:28.331Z,9.00
2023-02-06T17:24:56.897Z,9.07
2023-02-06T17:27:25.226Z,9.12
2023-02-06T17:29:54.665Z,9.19
2023-02-06T17:32:23.777Z,9.24
2023-02-06T17:34:54.971Z,9.27
2023-02-06T17:37:23.373Z,9.33
2023-02-06T17:39:53.244Z,9.38
2023-02-06T17:42:24.050Z,9.44
2023-02-06T17:44:52.503Z,9.49
2023-02-06T17:47:20.948Z,9.58
2023-02-06T17:49:49.269Z,9.62
2023-02-06T17:52:17.994Z,9.66
2023-02-06T17:54:46.491Z,9.72
2023-02-06T17:57:14.765Z,9.77
2023-02-06T17:59:43.274Z,9.86
2023-02-06T18:02:17.200Z,9.93
2023-02-06T18:04:49.517Z,10.00
2023-02-06T18:07:17.880Z,10.10
2023-02-06T18:09:47.961Z,10.14
2023-02-06T18:12:16.866Z,10.20
2023-02-06T18:14:45.547Z,10.24
2023-02-06T18:17:14.055Z,10.27
2023-02-06T18:19:43.732Z,10.31
2023-02-06T18:22:15.151Z,10.34
2023-02-06T18:24:44.112Z,10.40
2023-02-06T18:27:13.140Z,10.47
2023-02-06T18:29:50.006Z,10.51
2023-02-06T18:32:20.027Z,10.57
2023-02-06T18:34:48.480Z,10.62
2023-02-06T18:37:17.134Z,10.69
2023-02-06T18:39:45.777Z,10.76
2023-02-06T18:42:32.547Z,10.80
2023-02-06T18:45:03.185Z,10.85
2023-02-06T18:47:32.290Z,10.90
2023-02-06T18:50:00.595Z,10.94
2023-02-06T18:52:29.011Z,10.97
2023-02-06T18:54:57.281Z,11.03
2023-02-06T18:57:25.596Z,11.10
2023-02-06T18:59:53.853Z,11.21
2023-02-06T19:02:22.213Z,11.27
2023-02-06T19:04:50.608Z,11.28
2023-02-06T19:07:19.333Z,11.31
2023-02-06T19:09:47.638Z,11.35
2023-02-06T19:12:15.967Z,11.39
2023-02-06T19:14:44.549Z,11.45
2023-02-06T19:17:12.905Z,11.53
2023-02-06T19:19:41.161Z,11.55
2023-02-06T19:22:09.401Z,11.60
2023-02-06T19:24:37.843Z,11.67
2023-02-06T19:27:06.131Z,11.76
2023-02-06T19:29:36.457Z,11.84
2023-02-06T19:32:07.181Z,11.93
2023-02-06T19:34:37.944Z,11.96
2023-02-06T19:37:11.113Z,12.01
2023-02-06T19:39:41.198Z,12.09
2023-02-06T19:42:11.436Z,12.15
2023-02-06T19:44:39.746Z,12.19
2023-02-06T19:47:08.009Z,12.24
2023-02-06T19:49:36.554Z,12.33
2023-02-06T19:52:05.452Z,12.38
2023-02-06T19:54:33.779Z,12.41
2023-02-06T19:57:02.071Z,12.43
2023-02-06T19:59:31.269Z,12.48
2023-02-06T20:02:01.971Z,12.54
2023-02-06T20:04:34.962Z,12.60
2023-02-06T20:07:03.861Z,12.70
2023-02-06T20:09:32.369Z,12.75
2023-02-06T20:12:00.649Z,12.79
2023-02-06T20:14:29.154Z,12.82
2023-02-06T20:16:57.549Z,12.90
2023-02-06T20:19:28.267Z,12.92
2023-02-06T20:21:59.944Z,12.95
2023-02-06T20:24:31.431Z,12.99
2023-02-06T20:27:02.598Z,13.04
2023-02-06T20:29:37.512Z,13.07
2023-02-06T20:32:07.251Z,13.14
2023-02-06T20:34:36.461Z,13.20
2023-02-06T20:37:05.664Z,13.32
2023-02-06T20:39:35.450Z,13.40
2023-02-06T20:42:03.749Z,13.47
2023-02-06T20:44:32.291Z,13.56
2023-02-06T20:47:00.730Z,13.60
2023-02-06T20:49:31.777Z,13.60
2023-02-06T20:52:00.062Z,13.65
2023-02-06T20:54:28.398Z,13.71
2023-02-06T20:56:56.982Z,13.75
2023-02-06T20:59:25.695Z,13.76
2023-02-06T21:01:54.071Z,13.83
2023-02-06T21:04:22.453Z,13.96
2023-02-06T21:06:50.893Z,14.04
2023-02-06T21:09:20.233Z,14.09
2023-02-06T21:11:51.491Z,14.18
2023-02-06T21:14:20.526Z,14.28
2023-02-06T21:16:49.748Z,14.31
2023-02-06T21:19:20.181Z,14.37
2023-02-06T21:21:48.767Z,14.44
2023-02-06T21:24:18.472Z,14.50
2023-02-06T21:26:46.778Z,14.54
2023-02-06T21:29:16.437Z,14.63
2023-02-06T21:31:45.790Z,14.68
2023-02-06T21:34:22.123Z,14.75
2023-02-06T21:36:51.991Z,14.76
2023-02-06T21:39:23.865Z,14.81
2023-02-06T21:41:52.768Z,14.85
2023-02-06T21:44:24.517Z,14.85
2023-02-06T21:46:53.272Z,14.99
2023-02-06T21:49:22.032Z,15.10
2023-02-06T21:51:51.297Z,15.21
2023-02-06T21:54:19.751Z,15.26
2023-02-06T21:56:48.029Z,15.34
2023-02-06T21:59:16.280Z,15.42
2023-02-06T22:01:44.530Z,15.51
2023-02-06T22:04:13.227Z,15.57
2023-02-06T22:06:41.626Z,15.70
2023-02-06T22:09:16.009Z,15.83
2023-02-06T22:11:45.411Z,15.99
2023-02-06T22:14:18.329Z,16.18
2023-02-06T22:16:50.072Z,16.31
2023-02-06T22:19:19.388Z,16.55
2023-02-06T22:21:47.666Z,16.74
2023-02-06T22:24:15.917Z,16.83
2023-02-06T22:26:44.798Z,16.78
2023-02-06T22:29:16.720Z,16.81
2023-02-06T22:31:46.739Z,16.81
2023-02-06T22:34:21.062Z,16.79
2023-02-06T22:36:51.788Z,16.85
2023-02-06T22:39:20.626Z,16.97
2023-02-06T22:41:49.754Z,17.09
2023-02-06T22:44:20.686Z,17.28
2023-02-06T22:46:52.111Z,17.31
2023-02-06T22:49:22.605Z,17.31
2023-02-06T22:51:51.148Z,17.33
2023-02-06T22:54:19.625Z,17.34
2023-02-06T22:56:48.566Z,17.28
2023-02-06T22:59:20.808Z,17.27
2023-02-06T23:01:50.447Z,17.13
2023-02-06T23:04:29.780Z,17.08
2023-02-06T23:06:58.560Z,17.05
2023-02-06T23:09:29.779Z,16.94
2023-02-06T23:12:01.865Z,16.85
2023-02-06T23:14:32.580Z,16.85
2023-02-06T23:17:01.983Z,16.91
2023-02-06T23:19:31.100Z,16.87
2023-02-06T23:21:59.610Z,16.75
2023-02-06T23:24:27.923Z,16.63
2023-02-06T23:26:56.346Z,16.50
2023-02-06T23:29:25.142Z,16.37
2023-02-06T23:31:53.632Z,16.22
2023-02-06T23:34:25.075Z,16.12
2023-02-06T23:36:53.909Z,15.98
2023-02-06T23:39:22.827Z,15.93
2023-02-06T23:41:51.338Z,15.88
2023-02-06T23:44:20.293Z,15.82
2023-02-06T23:46:48.750Z,15.70
2023-02-06T23:49:17.137Z,15.59
2023-02-06T23:51:45.851Z,15.44
2023-02-06T23:54:14.303Z,15.36
2023-02-06T23:56:42.590Z,15.27
2023-02-06T23:59:12.976Z,15.19
